Carter Lake, IA (51510)

04:11 CDT le 02 septembre 2014 (GMT -0500)
CarterLake.org | Change Station
CLOSE
Current Station
Stations météorologiques personnelles
Location: Carter Lake, IA
Altitude: 980 ft
Stations météo à proximité

Alt. 980 ft 41.29 °N, 95.92 °W | Updated 2 seconds ago

Clear
Ciel dégagé
60.7 ° F
Paraît 60.7 ° F
N
0.0
Vent Variable Vent de SE
Gusts 0.0 mph

Aujourd'hui
Haut(e) -- | Bas -- ° F
--% Risque de précip.
Hier
Haut(e) -- | Bas -- ° F
Precip. -- pouce
6:51 AM 7:54 PM
Lune montante, 49% visible
Pression 29.91 pouce
Visibilité 10.0 Miles terrestres
Nuages Ciel dégagé
Point de rosée 55 ° F
Humidité 82%
Précipitations 0.00 pouce
Profondeur de la couche neigeuse Non disponible.
UV 0 sur 12
Pollen 6.20 sur 12
Ozone Bon
PM2.5 Bon
Flu Activity Non disponible.
METAR KOMA 020852Z 31003KT 10SM CLR 16/14 A2993 RMK AO2 SLP128 T01610139 56011

More Conditions Fewer Conditions

Pression 29.91 pouce
Visibilité 10.0 Miles terrestres
Nuages Ciel dégagé
Point de rosée 55 ° F
Humidité 82%
Précipitations 0.00 pouce
Profondeur de la couche neigeuse Non disponible.
UV 0 sur 12
Pollen 6.20 sur 12
Ozone Bon
PM2.5 Bon
Flu Activity Non disponible.
METAR KOMA 020852Z 31003KT 10SM CLR 16/14 A2993 RMK AO2 SLP128 T01610139 56011

More Conditions Fewer Conditions

10-Day Weather Forecast

Almanac

Astronomie

Sep. 02, 2014 Lever Coucher
Temps réel 06:51 CDT 19:54 CDT
Crépuscule civil 06:22 CDT 20:23 CDT
Crépuscule nautique 05:48 CDT 20:56 CDT
Crépuscule astronomique 05:13 CDT 21:31 CDT
Lune 14:40 CDT Pas de coucher de lune
Durée de lumière visible 14h 00m
Longueur du jour
13h 03m
Tomorrow will be 2m 40s shorter.
Lune montante, 49% of the Moon is Illuminated
Aujourd'hui
Lune montante
Sep 2
Premier quartier
Sep 8
Pleine lune
Sep 15
Dernier quartier
Sep 24
Nouveau

Extrêmes aujourd'hui

State Highs State Lows

Community

WunderPhotos

Upload Photos

1,749,587 Photos téléchargées !

WunderBlogs® & News

Nearby

Qualité de l'air

  Qualité de l'air Indice de la qualité de l'air Polluant
Hier Bon
OZONE
Hier Bon
PM2.5
Actuel Bon
OZONE
Actuel Bon
PM2.5

Épaisseur de neige

Station Depth Altitude
Pas de nouvelles chutes de neige

Activité sismique

Ville Distance Mag. Time & Date
No recent earthquake activity has been reported nearby.
Minimum magnitude displayed is 2.5.

Températures des eaux côtières

Lieu Température
Aucun rapport de station

Stations météo à proximité